• images/banner/banner1.jpg
  • images/banner/banner2.jpg

Team Member Login

Aviation Weather

[source: ADDS]
METAR
EGVN 181950Z 06005KT CAVOK 09/06 Q1027 BLU NOSIG =
TAF EGVN 181924Z 1821/1921 VRB03KT 9999 FEW025 PROB40 1901/1908 2000 BR PROB30 1903/1907 0500 FG VV///
TAF
TAF EGVN 181924Z 1821/1921 VRB03KT 9999 FEW025 PROB40 1901/1908 2000 BR PROB30 1903/1907 0500 FG VV/// =